Date,TemperatureHighF,TemperatureAvgF,TemperatureLowF,DewpointHighF,DewpointAvgF,DewpointLowF,HumidityHigh,HumidityAvg,HumidityLow,PressureMaxIn,PressureMinIn,WindSpeedMaxMPH,WindSpeedAvgMPH,GustSpeedMaxMPH,PrecipitationSumIn
2014-1-1,7,2,-5,-2,-8,-15,65,62,58,0.00,40.00,16,11,24,0.00
2014-1-2,9,4,-6,0,-4,-14,77,66,56,0.00,40.00,16,10,26,0.00
2014-1-3,17,3,-15,11,-5,-22,76,69,55,0.00,40.00,21,11,33,0.00
2014-1-4,32,23,14,28,14,-100,87,72,66,0.00,40.00,17,11,27,0.00
2014-1-5,14,5,-8,5,-7,-20,68,58,46,0.00,40.00,15,12,25,0.00
2014-1-6,-8,-15,-19,-20,-27,-32,61,54,45,0.00,40.00,16,3,26,0.00
2014-1-7,1,-10,-20,-14,-20,-28,67,59,49,0.00,40.00,14,3,22,0.00
2014-1-8,7,-3,-14,-8,-13,-21,74,64,48,0.00,40.00,9,3,15,0.00
2014-1-9,22,-1,-17,20,-7,-25,90,73,56,0.00,40.00,14,3,23,0.00
2014-1-10,36,29,22,36,29,20,100,97,90,0.00,40.00,13,9,19,0.28
2014-1-11,35,31,29,35,29,-100,100,93,85,0.00,40.00,16,10,24,0.14
2014-1-12,39,32,25,33,28,24,99,84,65,0.00,40.00,19,11,35,0.00
2014-1-13,40,33,22,34,29,18,96,86,71,0.00,40.00,15,6,30,0.00
2014-1-14,33,26,16,33,24,15,100,91,71,0.00,40.00,18,11,45,0.02
2014-1-15,16,12,6,15,8,2,94,85,79,0.00,40.00,20,10,38,0.01
2014-1-16,31,23,12,31,20,6,100,86,74,0.00,40.00,20,12,52,0.01
2014-1-17,21,15,9,16,10,3,86,79,73,0.00,40.00,14,9,24,0.01
2014-1-18,18,11,4,12,4,-100,89,78,69,0.00,40.00,8,4,12,0.00
2014-1-19,33,22,4,25,16,1,89,80,66,0.00,40.00,13,8,20,0.00
2014-1-20,29,14,4,25,8,-9,96,76,54,0.00,40.00,19,10,28,0.00
2014-1-21,4,-2,-10,-9,-12,-17,72,62,50,0.00,40.00,14,6,25,0.00
2014-1-22,9,2,-4,2,-6,-14,77,67,51,0.00,40.00,15,9,24,0.00
2014-1-23,7,-1,-9,-7,-11,-18,67,61,51,0.00,40.00,16,11,25,0.00
2014-1-24,27,8,-11,26,0,-19,97,68,57,0.00,40.00,17,12,32,0.00
2014-1-25,28,12,-2,28,-1,-100,98,58,40,0.00,40.00,21,12,33,0.00
2014-1-26,19,9,2,13,3,-8,83,74,58,0.00,40.00,22,10,38,0.01
2014-1-27,4,-6,-14,-2,-18,-24,77,54,42,0.00,40.00,19,13,31,0.01
2014-1-28,2,-9,-20,-13,-20,-28,67,58,47,0.00,40.00,15,6,29,0.00
2014-1-29,19,6,-7,7,-6,-16,68,58,43,0.00,40.00,17,7,44,0.00
2014-1-30,29,23,12,27,16,6,94,74,55,0.00,40.00,19,13,56,0.03
2014-1-31,12,4,-2,6,-4,-9,78,67,53,0.00,40.00,10,4,15,0.03
2014-2-1,16,9,-4,10,3,-100,87,77,68,0.00,40.00,9,3,14,0.03
2014-2-2,15,7,-4,4,-1,-9,87,71,49,0.00,40.00,9,4,20,0.01
2014-2-3,19,5,-11,2,-5,-17,78,63,45,0.00,40.00,10,5,16,0.00
2014-2-4,17,11,1,9,3,-4,79,70,63,0.00,40.00,11,5,17,0.00
2014-2-5,16,13,4,11,5,-3,84,71,62,0.00,40.00,17,11,32,0.00
2014-2-6,7,-1,-7,-3,-10,-15,77,66,49,0.00,40.00,15,8,21,0.00
2014-2-7,13,1,-9,-5,-9,-15,76,63,44,0.00,40.00,17,8,25,0.00
2014-2-8,16,6,-4,9,0,-9,88,76,60,0.00,40.00,7,4,11,0.00
2014-2-9,18,9,-2,7,1,-11,88,72,54,0.00,40.00,13,5,43,0.00
2014-2-10,8,-1,-8,-9,-12,-16,71,59,45,0.00,40.00,11,5,20,0.00
2014-2-11,14,0,-13,-6,-12,-19,75,59,39,0.00,40.00,10,4,14,0.00
2014-2-12,17,8,-2,11,2,-10,91,74,62,0.00,40.00,10,6,15,0.01
2014-2-13,26,20,1,22,14,-4,89,77,51,0.00,40.00,16,10,36,0.01
2014-2-14,23,14,5,9,5,-4,85,67,52,0.00,40.00,13,8,27,0.00
2014-2-15,19,12,1,13,2,-100,93,64,51,0.00,40.00,9,5,17,0.00
2014-2-16,18,14,5,13,8,0,92,77,61,0.00,40.00,12,5,33,0.01
2014-2-17,24,20,8,23,17,3,97,89,74,0.00,40.00,20,8,36,0.07
2014-2-18,44,29,13,29,23,11,96,80,51,0.00,40.00,15,7,24,0.01
2014-2-19,44,34,25,30,24,21,92,68,47,0.00,40.00,10,5,29,0.00
2014-2-20,38,35,31,38,32,22,100,89,58,0.00,40.00,23,12,70,0.27
2014-2-21,35,24,18,33,16,9,92,72,56,0.00,40.00,26,22,68,0.18
2014-2-22,28,19,10,11,6,-100,73,59,45,0.00,40.00,20,12,48,0.00
2014-2-23,24,13,4,5,2,-2,75,61,43,0.00,40.00,19,11,30,0.00
2014-2-24,21,12,5,5,2,-2,77,63,46,0.00,40.00,18,10,31,0.00
2014-2-25,13,8,0,2,-3,-10,77,59,41,0.00,40.00,17,11,27,0.00
2014-2-26,11,2,-8,6,-10,-16,78,56,39,0.00,40.00,22,13,35,0.00
2014-2-27,11,1,-8,6,-16,-21,78,46,30,0.00,40.00,17,10,32,0.00
2014-2-28,20,8,-9,16,-5,-21,92,54,41,0.00,40.00,16,7,24,0.01
2014-3-1,17,10,4,15,1,-100,92,68,50,0.00,40.00,15,10,23,0.02
2014-3-2,7,1,-6,-8,-16,-23,59,43,28,0.00,40.00,14,9,23,0.00
2014-3-3,14,3,-11,-2,-12,-23,55,48,37,0.00,40.00,11,5,17,0.00
2014-3-4,20,14,9,8,6,-2,86,72,54,0.00,40.00,8,5,12,0.06
2014-3-5,20,14,2,8,4,-4,81,66,52,0.00,40.00,12,8,19,0.01
2014-3-6,31,18,-4,12,7,-9,89,65,40,0.00,40.00,11,6,39,0.00
2014-3-7,43,30,15,29,21,11,84,70,47,0.00,40.00,12,8,40,0.00
2014-3-8,33,26,18,29,16,-100,85,70,54,0.00,40.00,16,7,37,0.00
2014-3-9,37,27,14,30,19,10,90,73,49,0.00,40.00,17,8,45,0.00
2014-3-10,54,43,33,35,33,30,96,71,48,0.00,40.00,9,5,32,0.00
2014-3-11,42,38,34,39,34,27,99,82,68,0.00,40.00,15,4,23,0.05
2014-3-12,34,23,13,27,12,3,79,65,45,0.00,40.00,18,12,29,0.01
2014-3-13,37,24,11,31,16,2,96,72,61,0.00,40.00,16,9,24,0.00
2014-3-14,49,40,32,34,32,28,98,74,49,0.00,40.00,21,11,30,0.00
2014-3-15,37,31,22,28,18,-100,76,63,43,0.00,40.00,16,8,24,0.00
2014-3-16,23,16,9,13,3,-100,70,59,44,0.00,40.00,17,10,27,0.00
2014-3-17,33,22,12,20,10,5,84,62,36,0.00,40.00,16,8,40,0.00
2014-3-18,46,36,27,31,28,23,92,73,55,0.00,40.00,14,11,23,0.00
2014-3-19,38,34,33,34,32,25,100,90,73,0.00,40.00,17,10,34,0.00
2014-3-20,43,35,30,27,23,19,84,63,40,0.00,40.00,13,7,40,0.00
2014-3-21,46,35,26,34,27,22,93,75,52,0.00,40.00,18,8,27,0.00
2014-3-22,36,31,20,34,19,-100,93,63,40,0.00,40.00,17,12,28,0.00
2014-3-23,28,20,13,8,4,2,67,51,35,0.00,40.00,13,9,24,0.00
2014-3-24,34,31,24,22,14,8,85,51,36,0.00,40.00,17,12,53,0.00
2014-3-25,24,20,12,19,6,0,84,57,34,0.00,40.00,17,11,28,0.00
2014-3-26,36,24,11,20,10,3,78,57,37,0.00,40.00,16,8,36,0.00
2014-3-27,43,38,34,42,32,20,100,83,50,0.00,40.00,22,13,46,0.32
2014-3-28,42,35,31,40,30,27,100,83,60,0.00,40.00,18,9,46,0.30
2014-3-29,44,33,26,27,23,-100,94,73,47,0.00,40.00,8,5,18,0.01
2014-3-30,55,40,24,36,27,20,87,63,44,0.00,40.00,16,8,28,0.00
2014-3-31,66,52,41,38,33,26,72,52,22,0.00,40.00,23,13,53,0.00
2014-4-1,54,38,28,39,26,20,81,64,48,0.00,40.00,22,12,61,0.00
2014-4-2,48,35,23,30,23,19,92,66,43,0.00,40.00,10,4,42,0.00
2014-4-3,38,36,33,29,22,18,77,58,47,0.00,40.00,15,2,54,0.00
2014-4-4,35,33,30,34,31,25,99,89,73,0.00,40.00,18,4,73,0.07
2014-4-5,52,39,25,29,24,-100,96,62,31,0.00,40.00,13,6,34,0.02
2014-4-6,60,45,32,34,30,26,81,59,36,0.00,40.00,15,8,25,0.00
2014-4-7,61,50,41,44,35,31,93,59,38,0.00,40.00,10,5,16,0.00
2014-4-8,56,47,36,44,37,31,97,73,39,0.00,40.00,22,8,45,0.02
2014-4-9,62,47,33,34,30,26,92,58,25,0.00,40.00,16,7,44,0.01
2014-4-10,63,54,42,38,29,17,56,40,18,0.00,40.00,18,10,57,0.00
2014-4-11,64,50,37,37,28,20,66,44,21,0.00,40.00,18,8,68,0.00
2014-4-12,49,45,40,49,36,-100,100,75,50,0.00,40.00,23,12,64,1.24
2014-4-13,53,45,40,53,44,39,100,98,94,0.00,40.00,23,8,33,2.88
2014-4-14,40,34,31,39,31,24,99,90,73,0.00,40.00,29,17,41,2.10
2014-4-15,33,27,19,20,15,11,88,62,43,0.00,40.00,13,7,24,0.02
2014-4-16,48,38,26,29,24,18,76,59,42,0.00,40.00,22,13,68,0.00
2014-4-17,55,44,35,40,33,27,91,64,54,0.00,40.00,19,11,44,0.00
2014-4-18,54,37,30,33,30,26,98,78,42,0.00,40.00,10,4,18,0.00
2014-4-19,60,45,33,39,30,-100,79,57,35,0.00,40.00,18,13,41,0.00
2014-4-20,71,59,50,53,42,36,70,56,37,0.00,40.00,14,8,196,0.00
2014-4-21,69,61,53,60,52,40,91,73,52,0.00,40.00,14,5,45,0.01
2014-4-22,55,47,37,40,30,26,72,53,32,0.00,40.00,17,13,45,0.01
2014-4-23,54,43,32,29,25,13,80,53,31,0.00,40.00,11,6,17,0.00
2014-4-24,48,43,35,38,32,13,89,67,32,0.00,40.00,22,13,40,0.33
2014-4-25,65,52,43,44,40,35,97,67,34,0.00,40.00,20,9,30,0.09
2014-4-26,48,42,34,39,32,30,86,69,55,0.00,40.00,21,10,38,0.01
2014-4-28,46,44,43,40,39,37,90,82,70,0.00,40.00,20,18,34,0.09
2014-4-29,49,44,40,47,43,39,97,93,86,0.00,40.00,16,9,41,0.56
2014-4-30,55,48,43,47,43,36,96,84,69,0.00,40.00,14,9,41,0.02
2014-5-1,50,45,40,45,40,37,96,85,74,0.00,40.00,13,8,34,0.01
2014-5-2,51,47,44,45,42,39,97,85,64,0.00,40.00,13,9,34,0.06
2014-5-3,62,52,44,45,38,-100,100,67,33,0.00,40.00,19,10,48,0.07
2014-5-4,60,50,42,39,30,24,72,49,25,0.00,40.00,17,9,56,0.00
2014-5-5,57,47,42,37,34,31,76,61,45,0.00,40.00,26,10,62,0.00
2014-5-6,60,50,40,39,34,29,77,56,43,0.00,40.00,19,11,54,0.00
2014-5-7,51,51,51,35,35,35,55,55,55,0.00,40.00,12,12,34,0.00
2014-5-13,57,54,50,45,42,40,70,66,64,0.00,40.00,12,10,34,0.26
2014-5-14,57,51,43,43,39,36,85,65,46,0.00,40.00,12,6,31,0.01
2014-5-15,51,45,39,43,36,33,93,71,51,0.00,40.00,17,11,39,0.09
2014-5-16,50,44,38,36,31,27,92,61,43,0.00,40.00,10,6,130,0.01
2014-5-17,61,50,37,38,31,-100,88,52,28,0.00,40.00,19,7,53,0.00
2014-5-18,73,58,44,43,38,34,73,49,26,0.00,40.00,13,7,23,0.00
2014-5-19,66,55,49,49,39,-100,75,60,41,0.00,40.00,21,10,43,0.05
2014-5-20,85,67,53,64,55,-100,83,69,49,0.00,40.00,16,8,35,0.01
2014-5-21,83,70,56,63,54,39,99,63,22,0.00,40.00,18,8,29,0.00
2014-5-22,70,59,50,49,45,-100,87,63,40,0.00,40.00,18,7,38,0.00
2014-5-23,69,59,48,50,45,39,93,63,37,0.00,40.00,13,5,37,0.00
2014-5-24,78,63,48,46,42,-100,84,52,28,0.00,40.00,9,3,15,0.00
2014-5-25,83,68,52,53,48,41,80,52,30,0.00,40.00,8,4,23,0.00
2014-5-26,85,72,65,68,61,50,94,72,53,0.00,40.00,15,6,39,0.19
2014-5-27,77,69,62,69,65,55,99,88,74,0.00,40.00,11,4,133,0.41
2014-5-28,72,62,56,55,50,42,84,64,51,0.00,40.00,18,8,41,0.26
2014-5-29,79,66,52,61,54,47,86,67,49,0.00,40.00,8,4,17,0.00
2014-5-30,82,68,54,58,52,47,90,60,31,0.00,40.00,13,6,30,0.00
2014-5-31,86,72,61,57,51,-100,68,50,34,0.00,40.00,15,8,27,0.00
2014-6-1,87,74,66,71,59,52,77,60,51,0.00,40.00,15,10,39,0.01
2014-6-2,79,74,65,67,65,63,98,74,59,0.00,40.00,18,13,47,2.48
2014-6-3,75,68,61,65,55,50,83,64,47,0.00,40.00,31,14,54,0.01
2014-6-4,76,66,60,61,57,54,86,75,56,0.00,40.00,9,4,21,0.03
2014-6-5,78,66,53,55,50,45,95,61,36,0.00,40.00,7,2,18,0.03
2014-6-6,81,70,60,58,54,50,77,57,39,0.00,40.00,8,4,69,0.00
2014-6-7,83,69,60,63,52,-100,92,59,41,0.00,40.00,17,4,26,0.14
2014-6-8,72,64,56,62,51,41,96,67,40,0.00,40.00,20,11,51,0.20
2014-6-9,76,63,49,59,49,38,83,61,52,0.00,40.00,9,2,41,0.01
2014-6-10,69,64,57,54,50,44,70,61,55,0.00,40.00,8,2,18,0.00
2014-6-11,66,62,59,61,56,51,93,83,66,0.00,40.00,13,0,35,0.03
2014-6-12,75,66,57,63,56,47,99,74,50,0.00,40.00,17,5,45,0.02
2014-6-13,73,62,53,49,42,36,71,51,29,0.00,40.00,8,1,16,0.01
2014-6-14,78,63,50,52,44,-100,77,55,38,0.00,40.00,9,1,25,0.00
2014-6-15,82,70,58,65,55,43,77,60,52,0.00,40.00,18,4,71,0.01
2014-6-16,86,74,62,64,61,59,94,66,41,0.00,40.00,11,5,31,0.01
2014-6-17,84,74,66,69,66,64,97,78,57,0.00,40.00,14,4,130,1.27
2014-6-18,76,70,64,67,65,62,98,86,72,0.00,40.00,3,0,27,1.70
2014-6-19,75,66,62,66,63,60,98,89,74,0.00,40.00,5,0,15,0.37
2014-6-20,79,68,61,71,65,59,99,90,73,0.00,40.00,4,1,69,2.04
2014-6-21,77,64,59,70,61,-100,100,92,80,0.00,40.00,1,0,14,0.04
2014-6-22,80,70,65,69,66,63,100,88,68,0.00,40.00,3,0,63,0.01
2014-6-23,83,70,63,71,66,62,99,87,63,0.00,40.00,4,1,11,1.02
2014-6-24,84,73,64,69,66,62,99,80,49,0.00,40.00,17,3,34,0.68
2014-6-25,71,66,61,64,62,58,97,88,74,0.00,40.00,3,0,10,0.00
2014-6-26,79,66,56,64,60,55,98,80,59,0.00,40.00,7,2,57,0.00
2014-6-27,85,73,60,70,64,57,93,75,57,0.00,40.00,4,0,38,0.00
2014-6-28,83,75,70,73,66,-100,86,75,67,0.00,40.00,5,0,39,0.00
2014-6-29,82,75,67,71,69,65,97,80,66,0.00,40.00,0,0,173,0.28
2014-6-30,84,73,66,75,68,64,97,86,74,0.00,40.00,19,1,39,1.52
2014-7-1,77,70,64,65,63,60,95,80,63,0.00,40.00,1,0,152,1.02
2014-7-2,67,62,59,61,58,56,97,88,80,0.00,40.00,6,2,53,0.08
2014-7-3,76,63,51,57,53,49,99,73,42,0.00,40.00,8,4,126,0.01
2014-7-4,78,67,54,58,54,51,98,66,39,0.00,40.00,12,5,82,0.00
2014-7-5,78,68,58,62,54,-100,79,65,56,0.00,40.00,18,9,94,0.00
2014-7-6,78,71,65,73,66,59,91,84,76,0.00,40.00,16,8,94,0.00
2014-7-7,83,75,69,72,66,59,98,76,50,0.00,40.00,15,6,123,0.02
2014-7-8,76,69,63,64,61,57,97,78,51,0.00,40.00,8,2,51,0.61
2014-7-9,73,65,58,59,56,51,97,74,48,0.00,40.00,15,5,48,0.03
2014-7-10,79,68,54,61,56,52,93,68,47,0.00,40.00,11,4,167,0.00
2014-7-11,77,69,61,62,57,53,77,67,54,0.00,40.00,10,3,156,0.00
2014-7-12,80,70,66,72,64,58,98,81,73,0.00,40.00,8,1,140,1.36
2014-7-13,79,70,60,67,61,50,99,77,43,0.00,40.00,10,1,19,1.41
2014-7-14,74,64,56,61,54,50,91,71,48,0.00,40.00,0,0,0,0.00
2014-7-15,66,58,53,56,52,50,96,82,63,0.00,40.00,0,0,0,0.03
2014-7-16,72,61,49,53,50,47,95,69,44,0.00,40.00,3,0,9,0.01
2014-7-17,77,64,52,58,53,50,93,69,42,0.00,40.00,5,1,116,0.00
2014-7-18,79,68,56,61,57,52,86,68,48,0.00,40.00,9,3,161,0.00
2014-7-19,79,70,61,63,59,54,87,70,51,0.00,40.00,14,4,41,0.00
2014-7-20,79,68,61,66,61,57,88,78,62,0.00,40.00,12,6,27,0.00
2014-7-21,85,74,64,70,65,60,89,75,58,0.00,40.00,12,6,33,0.00
2014-7-22,90,79,71,78,70,63,89,76,59,0.00,40.00,21,11,51,0.00
2014-7-23,74,67,57,63,56,50,96,70,51,0.00,40.00,17,6,46,0.00
2014-7-24,77,66,51,58,52,48,93,64,46,0.00,40.00,7,3,53,0.00
2014-7-25,73,64,56,63,57,47,89,78,57,0.00,40.00,8,1,51,0.06
2014-7-26,80,69,61,71,65,60,96,84,72,0.00,40.00,10,4,111,0.01
2014-7-27,76,69,62,68,63,56,100,83,58,0.00,40.00,18,8,48,0.24
2014-7-28,73,62,52,57,53,49,91,74,54,0.00,40.00,12,7,24,0.02
2014-7-29,77,65,57,59,56,55,95,77,47,0.00,40.00,12,5,49,0.28
2014-7-30,75,64,55,61,57,53,100,81,46,0.00,40.00,12,3,24,0.28
2014-7-31,80,66,58,63,56,56,97,77,51,0.00,40.00,16,6,137,0.00
2014-8-1,81,68,60,65,60,55,94,77,55,0.00,40.00,13,6,28,0.00
2014-8-2,85,70,57,63,59,55,94,72,42,0.00,40.00,4,2,117,0.00
2014-8-3,82,72,63,68,65,60,93,79,58,0.00,40.00,10,4,101,0.01
2014-8-4,80,68,62,71,64,60,98,87,71,0.00,40.00,10,4,35,0.02
2014-8-5,78,70,59,63,61,54,100,75,60,0.00,40.00,11,6,190,0.01
2014-8-6,82,69,53,60,56,51,94,66,40,0.00,40.00,5,2,94,0.00
2014-8-7,80,75,65,58,56,54,69,52,43,0.00,40.00,15,9,30,0.00
2014-8-8,81,72,62,61,56,52,78,60,40,0.00,40.00,9,4,34,0.00
2014-8-9,79,68,63,63,56,50,84,66,38,0.00,40.00,5,0,15,0.00
2014-8-10,82,71,63,63,59,54,87,67,50,0.00,40.00,7,2,112,0.00
2014-8-11,81,69,61,66,62,58,96,80,57,0.00,40.00,17,4,196,0.41
2014-8-12,72,64,56,62,56,50,94,79,57,0.00,40.00,19,9,53,0.49
2014-8-13,79,65,56,62,56,50,93,75,51,0.00,40.00,8,4,111,0.03
2014-8-14,73,65,51,55,50,46,97,61,41,0.00,40.00,11,3,114,0.00
2014-8-15,79,66,50,63,56,48,93,72,53,0.00,40.00,13,5,33,0.00
2014-8-16,84,67,59,69,62,58,98,86,58,0.00,40.00,19,7,46,0.89
2014-8-17,75,66,59,62,60,55,96,81,63,0.00,40.00,12,6,42,0.89
2014-8-18,76,60,57,66,58,56,98,95,72,0.00,40.00,16,5,87,0.78
2014-8-19,79,69,63,68,64,62,99,88,61,0.00,40.00,16,6,38,1.35
2014-8-20,83,71,62,69,65,62,99,82,57,0.00,40.00,10,4,39,0.00
2014-8-21,77,70,64,71,67,62,98,91,80,0.00,40.00,11,4,94,0.53
2014-8-22,90,77,69,75,72,69,100,86,61,0.00,40.00,9,4,68,0.45
2014-8-23,78,72,69,74,69,67,99,90,84,0.00,40.00,3,0,15,0.00
2014-8-24,81,74,69,72,69,66,95,86,75,0.00,40.00,24,6,42,0.00
2014-8-25,81,74,68,76,70,67,99,90,70,0.00,40.00,11,6,73,0.28
2014-8-26,76,69,61,67,61,56,99,77,55,0.00,40.00,14,7,40,0.02
2014-8-27,76,67,60,63,60,57,92,77,55,0.00,40.00,9,6,117,0.00
2014-8-28,75,65,57,61,57,52,97,76,60,0.00,40.00,16,8,39,0.00
2014-8-29,85,74,63,72,67,57,93,79,65,0.00,40.00,17,11,43,0.00
2014-8-30,77,71,66,70,67,65,98,87,74,0.00,40.00,13,8,34,0.31
2014-8-31,83,71,61,70,66,61,100,86,57,0.00,40.00,10,5,20,0.03
2014-9-1,77,70,62,69,66,61,98,87,68,0.00,40.00,25,11,64,0.07
2014-9-2,78,67,58,64,60,56,100,83,49,0.00,40.00,9,4,37,0.04
2014-9-3,81,70,58,64,60,57,95,74,48,0.00,40.00,14,7,42,0.00
2014-9-4,84,75,68,71,67,64,92,77,61,0.00,40.00,21,12,48,0.01
2014-9-5,78,71,60,74,64,54,93,79,59,0.00,40.00,23,12,48,0.43
2014-9-6,74,62,51,55,52,50,98,73,46,0.00,40.00,22,7,49,0.43
2014-9-7,80,65,51,59,54,50,97,72,38,0.00,40.00,12,6,69,0.00
2014-9-8,75,66,57,58,54,51,83,68,46,0.00,40.00,12,7,53,0.00
2014-9-9,82,69,59,65,60,55,90,74,51,0.00,40.00,11,7,28,0.00
2014-9-10,75,64,48,70,61,42,96,88,80,0.00,40.00,19,12,34,0.31
2014-9-11,52,47,44,45,41,38,94,79,69,0.00,40.00,15,9,29,0.02
2014-9-12,47,44,41,43,42,40,97,91,79,0.00,40.00,8,5,14,0.20
2014-9-13,59,47,39,42,39,36,99,75,44,0.00,40.00,9,5,19,0.10
2014-9-14,65,54,44,50,44,40,91,73,49,0.00,40.00,13,6,30,0.00
2014-9-15,58,53,46,53,50,46,99,90,72,0.00,40.00,7,3,27,0.16
2014-9-16,65,52,39,48,43,38,98,76,44,0.00,40.00,8,3,13,0.02
2014-9-17,70,56,42,53,46,41,96,75,45,0.00,40.00,8,4,16,0.00
2014-9-18,67,54,47,55,50,45,98,87,65,0.00,40.00,10,6,21,0.00
2014-9-19,73,61,49,57,51,48,100,73,43,0.00,40.00,16,9,30,0.00
2014-9-20,74,66,59,65,60,52,97,82,69,0.00,40.00,14,8,37,0.24
2014-9-21,60,56,44,57,49,41,97,80,54,0.00,40.00,17,10,55,0.17
2014-9-22,68,53,39,53,45,38,99,77,48,0.00,40.00,9,4,17,0.00
2014-9-23,76,60,49,55,51,47,96,74,41,0.00,40.00,6,4,14,0.00
2014-9-24,73,62,51,55,51,48,90,70,46,0.00,40.00,8,5,21,0.00
2014-9-25,78,65,54,54,52,50,93,66,38,0.00,40.00,7,4,113,0.00
2014-9-26,78,65,53,56,53,51,95,69,40,0.00,40.00,11,4,27,0.00
2014-9-27,81,67,57,60,55,51,84,65,43,0.00,40.00,10,5,33,0.00
2014-9-28,82,66,53,60,55,50,95,70,44,0.00,40.00,5,2,170,0.00
2014-9-29,79,59,48,62,54,45,97,85,49,0.00,40.00,16,7,29,0.10
2014-9-30,53,47,43,46,42,40,95,84,71,0.00,40.00,13,6,22,0.01
2014-10-1,68,57,47,54,50,46,96,79,56,0.00,40.00,14,8,22,0.00
2014-10-2,67,63,59,64,59,54,93,86,80,0.00,40.00,14,6,36,0.00
2014-10-3,65,52,42,62,48,32,97,85,65,0.00,40.00,22,14,51,0.74
2014-10-4,45,41,38,40,35,31,93,79,66,0.00,40.00,15,12,33,0.03
2014-10-5,51,43,34,39,33,30,92,71,44,0.00,40.00,15,8,32,0.01
2014-10-6,57,48,43,42,36,31,91,65,39,0.00,40.00,16,6,126,0.00
2014-10-7,65,52,43,44,40,36,88,66,37,0.00,40.00,15,8,38,0.00
2014-10-8,61,49,38,40,35,32,94,64,36,0.00,40.00,20,8,41,0.00
2014-10-9,57,45,33,36,33,30,91,66,35,0.00,40.00,9,3,21,0.00
2014-10-10,58,47,32,40,32,27,96,60,30,0.00,40.00,7,2,167,0.00
2014-10-11,59,44,31,39,34,30,97,69,37,0.00,40.00,6,1,20,0.00
2014-10-12,62,50,39,48,38,32,93,69,40,0.00,40.00,11,5,169,0.03
2014-10-13,62,56,51,59,54,48,99,93,78,0.00,40.00,16,6,54,1.64
2014-10-14,62,55,49,60,54,47,99,96,92,0.00,40.00,22,10,55,1.23
2014-10-15,53,50,48,52,49,46,99,96,91,0.00,40.00,16,11,36,0.05
2014-10-16,61,52,47,50,49,47,100,90,65,0.00,40.00,7,4,25,0.01
2014-10-17,57,50,46,51,47,40,98,88,76,0.00,40.00,17,9,53,0.01
2014-10-18,50,44,34,41,36,31,93,75,48,0.00,40.00,13,8,32,0.04
2014-10-19,56,45,33,44,38,31,96,79,58,0.00,40.00,17,8,44,0.01
2014-10-20,56,49,42,46,43,40,96,81,67,0.00,40.00,11,6,29,0.00
2014-10-21,50,44,36,44,38,34,94,77,59,0.00,40.00,14,7,27,0.00
2014-10-22,58,42,29,42,36,29,98,80,46,0.00,40.00,9,4,22,0.00
2014-10-23,54,45,35,50,41,32,100,86,63,0.00,40.00,12,6,39,0.21
2014-10-24,59,51,47,51,49,47,100,93,75,0.00,40.00,8,5,17,0.02
2014-10-25,66,56,45,54,40,26,100,63,23,0.00,40.00,22,9,64,0.00
2014-10-26,63,49,35,37,30,26,74,51,24,0.00,40.00,10,4,15,0.00
2014-10-27,73,61,50,59,50,37,76,67,56,0.00,40.00,14,9,33,0.10
2014-10-28,65,52,43,57,41,33,88,67,46,0.00,40.00,22,13,36,0.10
2014-10-29,46,42,33,37,32,30,90,69,58,0.00,40.00,17,9,32,0.00
2014-10-30,51,41,32,38,34,30,93,77,53,0.00,40.00,14,6,33,0.00
2014-10-31,43,36,33,35,24,17,91,62,40,0.00,40.00,31,18,59,0.00
2014-11-1,44,34,26,26,22,19,85,63,43,0.00,40.00,12,5,21,0.00
2014-11-2,52,39,28,31,26,22,90,63,33,0.00,40.00,14,10,31,0.00
2014-11-3,58,47,37,50,33,25,96,59,46,0.00,40.00,14,7,21,0.10
2014-11-4,57,48,39,56,42,32,99,81,50,0.00,40.00,17,10,32,0.20
2014-11-5,48,42,32,44,34,29,96,74,51,0.00,40.00,11,6,18,0.02
2014-11-6,45,38,33,44,33,25,100,83,65,0.00,40.00,23,14,41,0.09
2014-11-7,43,37,28,33,27,25,93,71,50,0.00,40.00,12,6,18,0.01
2014-11-8,43,38,31,37,29,23,94,71,48,0.00,40.00,20,11,53,0.05
2014-11-9,46,38,31,33,31,26,99,77,56,0.00,40.00,15,7,29,0.02
2014-11-10,52,43,32,44,38,29,98,85,72,0.00,40.00,20,10,51,0.01
2014-11-11,38,33,26,37,29,18,100,87,69,0.00,40.00,19,13,50,0.03
2014-11-12,27,23,20,18,16,15,83,72,62,0.00,40.00,18,12,41,0.03
2014-11-13,27,23,20,18,15,13,83,71,56,0.00,40.00,15,10,22,0.00
2014-11-14,25,21,15,18,14,10,90,74,55,0.00,40.00,10,6,16,0.00
2014-11-15,25,19,12,19,13,9,92,77,50,0.00,40.00,8,3,14,0.02
2014-11-16,27,22,15,23,18,5,92,86,73,0.00,40.00,10,6,19,0.02
2014-11-17,16,11,5,9,4,1,84,74,58,0.00,40.00,18,10,31,0.00
2014-11-18,19,13,8,8,4,2,77,66,53,0.00,40.00,17,12,34,0.00
2014-11-19,24,19,15,17,11,6,89,71,60,0.00,40.00,23,12,56,0.00
2014-11-20,21,16,8,12,5,-1,82,63,39,0.00,40.00,20,11,40,0.00
2014-11-21,30,18,4,11,3,-3,76,55,31,0.00,40.00,14,7,24,0.00
2014-11-22,47,36,30,46,33,13,100,90,48,0.00,40.00,13,8,28,0.00
2014-11-23,48,47,46,48,47,44,100,100,97,0.00,40.00,12,9,31,0.47
2014-11-24,44,34,23,44,34,23,100,100,98,0.00,40.00,19,11,32,0.40
2014-11-25,24,21,15,24,20,13,98,96,92,0.00,40.00,16,10,25,0.01
2014-11-26,24,18,14,23,16,12,96,93,91,0.00,40.00,6,4,20,0.00
2014-11-27,21,14,2,20,12,-2,96,90,83,0.00,40.00,13,6,28,0.00
2014-11-28,30,18,8,29,16,5,97,90,86,0.00,40.00,12,7,30,0.01
2014-11-29,42,35,29,40,34,29,100,93,78,0.00,40.00,12,9,28,0.01
2014-11-30,39,29,14,39,25,2,100,85,59,0.00,40.00,17,9,31,0.00
2014-12-1,14,9,5,3,-2,-6,78,59,45,0.00,40.00,17,9,29,0.00
2014-12-2,31,23,10,22,16,2,85,73,58,0.00,40.00,14,7,23,0.00
2014-12-3,31,23,16,20,14,9,93,69,42,0.00,40.00,15,7,43,0.00
2014-12-4,30,22,14,24,14,6,86,71,46,0.00,40.00,9,5,14,0.00
2014-12-5,36,32,27,32,28,24,100,85,72,0.00,40.00,7,4,13,0.00
2014-12-6,33,26,19,28,22,15,100,82,59,0.00,40.00,15,8,32,0.00
2014-12-7,37,28,16,26,21,14,94,75,52,0.00,40.00,15,8,29,0.00
2014-12-8,33,32,30,33,31,24,100,96,77,0.00,40.00,14,7,30,0.18
2014-12-9,34,31,25,34,28,21,100,89,80,0.00,40.00,13,9,31,0.04
2014-12-10,25,22,21,22,19,19,91,83,82,0.00,40.00,10,6,17,0.00
2014-12-11,29,21,18,22,19,17,97,91,76,0.00,40.00,10,6,26,0.00
2014-12-12,34,30,23,33,29,22,100,98,93,0.00,40.00,14,10,34,0.00
2014-12-13,40,37,33,40,37,32,100,100,98,0.00,40.00,10,5,21,0.00
2014-12-14,44,42,39,44,42,39,100,99,100,0.00,40.00,9,6,22,0.00
2014-12-15,46,43,41,46,43,41,100,100,100,0.00,40.00,12,7,23,0.03
2014-12-16,41,35,27,41,34,23,100,95,81,0.00,40.00,15,8,26,0.05
2014-12-17,27,23,18,23,18,14,91,81,73,0.00,40.00,14,11,30,0.01
2014-12-18,27,24,20,24,21,16,96,87,83,0.00,40.00,8,5,16,0.00
2014-12-19,28,22,16,24,19,15,99,88,68,0.00,40.00,5,2,11,0.00
2014-12-20,20,19,19,19,18,18,97,96,95,0.00,40.00,0,0,2,0.00
2014-12-29,22,16,8,8,6,3,80,64,54,0.00,40.00,11,8,26,0.00
2014-12-30,12,6,2,3,-5,-10,80,62,36,0.00,40.00,14,9,27,0.00
2014-12-31,18,8,-1,6,-3,-8,75,60,41,0.00,40.00,21,13,41,0.00
2015-1-1,28,20,13,17,11,5,87,69,57,0.00,40.00,17,10,36,0.00
2015-1-2,31,22,11,20,14,6,89,73,42,0.00,40.00,9,4,24,0.00